Terminal Aerodrome Forecast
Issued by NWS Tiyan, Guam

Home | Current Version | Previous Version | Text Only | Print | Product List | Glossary On
Versions: 1 2 3 4 5 6 7 8 9 10 11 12 13 14 15 16 17 18 19 20 21 22 23 24 25 26 27 28 29 30 31 32
000
FTPQ31 PGUM 111100
TAFPQ
TAF
PGUM 111138Z 1112/1218 32008KT 6SM -SHRA SCT014 BKN050 OVC120
     FM111500 35015G20KT P6SM VCSH SCT016 OVC050
      TEMPO 1116/1118 34020G30KT 2SM +SHRA BKN012 OVC045
     FM111800 31025G35KT P6SM VCSH SCT014 OVC045
      TEMPO 1118/1122 31030G40KT 2SM +TSRA BKN012CB OVC045
     FM112200 29015G25KT P6SM VCSH SCT014 BKN050 OVC120=

USA.gov is the U.S. government's official web portal to all federal, state and local government web resources and services.